Airfield :
LOGIN :

Register | Disclaimer

   EN    FR    IT 

 










Legend :    VFR   Marginal VFR   IFR   Intensive IFR   Very Intensive IFR
Visi :
Ceiling :
>= 8 km
>= 3000ft
5 to 8 km
1000 to 3000 ft
1500m to 5 km
500 to 1000 ft
800 to 1500m
200 to 500 ft
< 800m
< 200 ft
Symbols :   Thunderstorms  Fog  Heavy snow  Heavy precipitations  Wind > 20 kt
SIGMETs :     Misc.  Thunderstorms  Icing  Turbulence  Mountain Waves  Volcanic Ashes







- Airport Elevation : 31 ft
- IATA code : INV
- Download approach charts


EGPE - Inverness

CURRENT METAR :
  • 200120Z AUTO 25008KT 9999 FEW047/// 04/04 Q1018

EXPIRED METARs :
  • 200050Z AUTO 23006KT 9999 NCD 05/05 Q1018
  • 200020Z AUTO 25010KT 9999 -RA BKN032/// BKN037/// 06/05 Q1018
  • 192350Z AUTO 26012KT 9999 -RA BKN032/// 06/06 Q1018
  • 192320Z AUTO 24008KT 9999 DZ FEW037/// BKN043/// 06/06 Q1018
  • 192250Z AUTO 26011KT 9999 RA FEW023/// BKN030/// 06/06 Q1017

TAF AMD TAF EGPE
Valid from the 20 at 00:00 until the 20 at 09:00 UTC


200000Z 2000/2009 24008KT 9999 SCT018
TEMPO 2000/2001 5000 RA BKN012
PROB30
TEMPO 2001/2003 6000 -RA BKN013
ATIS : +44 1667 464 255
No reported NOTAMs for that airfield.



MET'MAP, your aeronautical weather chart ! - Copyright ORBIFLY December 2007 - Disclaimer

ORBIFLY MET'MAP TEAM :

Programming & Development : Alexandra Zaïnal
Concept & Development : Baudouin d'Aumeries
Co-Development & Prog : Marc-Olivier Méhu
Technical & hardware support : Manuel Goepfert

Contact : metmap@orbifly.com




SOURCES & CREDITS :

   NOAA